sensor_id;sensor_type;location;lat;lon;timestamp;P1;durP1;ratioP1;P2;durP2;ratioP2
69991;SDS011;57332;51.320;-0.580;2023-07-13T00:00:11;4.95;;;1.75;;
69991;SDS011;57332;51.320;-0.580;2023-07-13T00:02:38;7.70;;;2.20;;
69991;SDS011;57332;51.320;-0.580;2023-07-13T00:05:05;5.00;;;2.20;;
69991;SDS011;57332;51.320;-0.580;2023-07-13T00:07:33;6.50;;;2.50;;
69991;SDS011;57332;51.320;-0.580;2023-07-13T00:10:01;6.50;;;2.58;;
69991;SDS011;57332;51.320;-0.580;2023-07-13T00:14:56;8.18;;;2.50;;
69991;SDS011;57332;51.320;-0.580;2023-07-13T00:17:24;6.03;;;2.22;;
69991;SDS011;57332;51.320;-0.580;2023-07-13T00:19:51;5.43;;;2.80;;
69991;SDS011;57332;51.320;-0.580;2023-07-13T00:22:18;6.57;;;2.47;;
69991;SDS011;57332;51.320;-0.580;2023-07-13T00:24:45;3.92;;;2.10;;
69991;SDS011;57332;51.320;-0.580;2023-07-13T00:27:12;7.38;;;2.50;;
69991;SDS011;57332;51.320;-0.580;2023-07-13T00:29:40;6.47;;;3.08;;
69991;SDS011;57332;51.320;-0.580;2023-07-13T00:32:08;7.65;;;2.50;;
69991;SDS011;57332;51.320;-0.580;2023-07-13T00:34:36;7.20;;;2.50;;
69991;SDS011;57332;51.320;-0.580;2023-07-13T00:37:04;6.40;;;2.65;;
69991;SDS011;57332;51.320;-0.580;2023-07-13T00:39:33;5.60;;;1.98;;
69991;SDS011;57332;51.320;-0.580;2023-07-13T00:42:01;6.10;;;2.58;;
69991;SDS011;57332;51.320;-0.580;2023-07-13T00:44:28;8.77;;;2.55;;
69991;SDS011;57332;51.320;-0.580;2023-07-13T00:46:56;7.40;;;2.60;;
69991;SDS011;57332;51.320;-0.580;2023-07-13T00:49:26;6.07;;;2.47;;
69991;SDS011;57332;51.320;-0.580;2023-07-13T00:51:58;5.68;;;2.42;;
69991;SDS011;57332;51.320;-0.580;2023-07-13T00:54:33;7.55;;;2.75;;
69991;SDS011;57332;51.320;-0.580;2023-07-13T00:57:02;6.28;;;2.05;;
69991;SDS011;57332;51.320;-0.580;2023-07-13T00:59:29;8.65;;;2.95;;
69991;SDS011;57332;51.320;-0.580;2023-07-13T01:01:57;9.02;;;2.75;;
69991;SDS011;57332;51.320;-0.580;2023-07-13T01:04:24;6.03;;;2.20;;
69991;SDS011;57332;51.320;-0.580;2023-07-13T01:06:52;6.97;;;2.45;;
69991;SDS011;57332;51.320;-0.580;2023-07-13T01:09:19;4.78;;;2.33;;
69991;SDS011;57332;51.320;-0.580;2023-07-13T01:11:49;7.80;;;2.47;;
69991;SDS011;57332;51.320;-0.580;2023-07-13T01:14:16;5.28;;;2.03;;
69991;SDS011;57332;51.320;-0.580;2023-07-13T01:16:44;6.00;;;2.25;;
69991;SDS011;57332;51.320;-0.580;2023-07-13T01:21:41;6.45;;;2.20;;
69991;SDS011;57332;51.320;-0.580;2023-07-13T01:24:09;6.20;;;2.38;;
69991;SDS011;57332;51.320;-0.580;2023-07-13T01:26:36;5.40;;;2.30;;
69991;SDS011;57332;51.320;-0.580;2023-07-13T01:29:03;7.65;;;2.20;;
69991;SDS011;57332;51.320;-0.580;2023-07-13T01:31:30;5.88;;;2.40;;
69991;SDS011;57332;51.320;-0.580;2023-07-13T01:33:57;6.47;;;2.15;;
69991;SDS011;57332;51.320;-0.580;2023-07-13T01:36:24;6.07;;;2.15;;
69991;SDS011;57332;51.320;-0.580;2023-07-13T01:38:51;7.38;;;2.53;;
69991;SDS011;57332;51.320;-0.580;2023-07-13T01:41:18;5.63;;;2.22;;
69991;SDS011;57332;51.320;-0.580;2023-07-13T01:43:45;6.40;;;2.30;;
69991;SDS011;57332;51.320;-0.580;2023-07-13T01:46:12;4.00;;;1.85;;
69991;SDS011;57332;51.320;-0.580;2023-07-13T01:48:41;5.10;;;1.90;;
69991;SDS011;57332;51.320;-0.580;2023-07-13T01:51:09;3.08;;;2.00;;
69991;SDS011;57332;51.320;-0.580;2023-07-13T01:53:35;4.10;;;1.80;;
69991;SDS011;57332;51.320;-0.580;2023-07-13T01:56:02;4.22;;;2.00;;
69991;SDS011;57332;51.320;-0.580;2023-07-13T01:58:29;6.05;;;1.85;;
69991;SDS011;57332;51.320;-0.580;2023-07-13T02:00:56;7.72;;;2.20;;
69991;SDS011;57332;51.320;-0.580;2023-07-13T02:03:23;5.13;;;1.80;;
69991;SDS011;57332;51.320;-0.580;2023-07-13T02:05:50;5.63;;;1.90;;
69991;SDS011;57332;51.320;-0.580;2023-07-13T02:08:17;4.03;;;2.00;;
69991;SDS011;57332;51.320;-0.580;2023-07-13T02:10:44;3.63;;;1.50;;
69991;SDS011;57332;51.320;-0.580;2023-07-13T02:13:11;4.65;;;2.33;;
69991;SDS011;57332;51.320;-0.580;2023-07-13T02:15:39;4.25;;;1.98;;
69991;SDS011;57332;51.320;-0.580;2023-07-13T02:18:07;7.80;;;2.55;;
69991;SDS011;57332;51.320;-0.580;2023-07-13T02:20:34;5.07;;;1.80;;
69991;SDS011;57332;51.320;-0.580;2023-07-13T02:23:01;5.50;;;2.15;;
69991;SDS011;57332;51.320;-0.580;2023-07-13T02:25:28;4.40;;;2.08;;
69991;SDS011;57332;51.320;-0.580;2023-07-13T02:27:55;5.40;;;1.88;;
69991;SDS011;57332;51.320;-0.580;2023-07-13T02:30:22;3.95;;;1.90;;
69991;SDS011;57332;51.320;-0.580;2023-07-13T02:32:51;4.82;;;1.75;;
69991;SDS011;57332;51.320;-0.580;2023-07-13T02:35:18;4.80;;;1.90;;
69991;SDS011;57332;51.320;-0.580;2023-07-13T02:37:45;4.25;;;2.10;;
69991;SDS011;57332;51.320;-0.580;2023-07-13T02:40:12;4.93;;;1.70;;
69991;SDS011;57332;51.320;-0.580;2023-07-13T02:42:39;3.28;;;1.77;;
69991;SDS011;57332;51.320;-0.580;2023-07-13T02:45:07;3.28;;;2.17;;
69991;SDS011;57332;51.320;-0.580;2023-07-13T02:47:34;3.50;;;2.03;;
69991;SDS011;57332;51.320;-0.580;2023-07-13T02:50:02;5.43;;;2.00;;
69991;SDS011;57332;51.320;-0.580;2023-07-13T02:52:29;4.03;;;2.22;;
69991;SDS011;57332;51.320;-0.580;2023-07-13T02:54:56;4.60;;;2.05;;
69991;SDS011;57332;51.320;-0.580;2023-07-13T02:57:23;4.55;;;2.30;;
69991;SDS011;57332;51.320;-0.580;2023-07-13T02:59:50;4.95;;;2.00;;
69991;SDS011;57332;51.320;-0.580;2023-07-13T03:02:17;5.80;;;2.08;;
69991;SDS011;57332;51.320;-0.580;2023-07-13T03:04:44;5.22;;;2.15;;
69991;SDS011;57332;51.320;-0.580;2023-07-13T03:07:11;4.65;;;2.15;;
69991;SDS011;57332;51.320;-0.580;2023-07-13T03:09:40;4.70;;;1.90;;
69991;SDS011;57332;51.320;-0.580;2023-07-13T03:12:07;5.13;;;2.20;;
69991;SDS011;57332;51.320;-0.580;2023-07-13T03:14:34;5.68;;;1.80;;
69991;SDS011;57332;51.320;-0.580;2023-07-13T03:17:01;6.25;;;2.30;;
69991;SDS011;57332;51.320;-0.580;2023-07-13T03:19:28;6.90;;;2.10;;
69991;SDS011;57332;51.320;-0.580;2023-07-13T03:21:55;4.20;;;1.80;;
69991;SDS011;57332;51.320;-0.580;2023-07-13T03:24:22;5.90;;;2.17;;
69991;SDS011;57332;51.320;-0.580;2023-07-13T03:26:51;5.05;;;2.22;;
69991;SDS011;57332;51.320;-0.580;2023-07-13T03:29:18;6.05;;;2.03;;
69991;SDS011;57332;51.320;-0.580;2023-07-13T03:31:45;3.92;;;1.88;;
69991;SDS011;57332;51.320;-0.580;2023-07-13T03:34:12;3.60;;;1.67;;
69991;SDS011;57332;51.320;-0.580;2023-07-13T03:36:39;4.88;;;2.15;;
69991;SDS011;57332;51.320;-0.580;2023-07-13T03:39:06;6.30;;;1.90;;
69991;SDS011;57332;51.320;-0.580;2023-07-13T03:41:35;6.50;;;2.13;;
69991;SDS011;57332;51.320;-0.580;2023-07-13T03:44:02;7.38;;;2.40;;
69991;SDS011;57332;51.320;-0.580;2023-07-13T03:46:30;4.43;;;2.00;;
69991;SDS011;57332;51.320;-0.580;2023-07-13T03:48:57;4.55;;;1.80;;
69991;SDS011;57332;51.320;-0.580;2023-07-13T03:51:24;5.15;;;2.08;;
69991;SDS011;57332;51.320;-0.580;2023-07-13T03:53:51;4.88;;;1.95;;
69991;SDS011;57332;51.320;-0.580;2023-07-13T03:56:18;5.28;;;2.20;;
69991;SDS011;57332;51.320;-0.580;2023-07-13T03:58:46;5.13;;;2.03;;
69991;SDS011;57332;51.320;-0.580;2023-07-13T04:01:13;4.15;;;2.00;;
69991;SDS011;57332;51.320;-0.580;2023-07-13T04:03:41;6.65;;;2.33;;
69991;SDS011;57332;51.320;-0.580;2023-07-13T04:06:11;3.38;;;1.75;;
69991;SDS011;57332;51.320;-0.580;2023-07-13T04:08:42;4.97;;;1.90;;
69991;SDS011;57332;51.320;-0.580;2023-07-13T04:11:09;4.85;;;1.90;;
69991;SDS011;57332;51.320;-0.580;2023-07-13T04:13:36;9.02;;;2.05;;
69991;SDS011;57332;51.320;-0.580;2023-07-13T04:16:03;4.10;;;2.00;;
69991;SDS011;57332;51.320;-0.580;2023-07-13T04:18:30;7.38;;;2.50;;
69991;SDS011;57332;51.320;-0.580;2023-07-13T04:20:57;5.93;;;2.33;;
69991;SDS011;57332;51.320;-0.580;2023-07-13T04:23:23;5.35;;;2.33;;
69991;SDS011;57332;51.320;-0.580;2023-07-13T04:25:51;5.07;;;1.90;;
69991;SDS011;57332;51.320;-0.580;2023-07-13T04:28:22;3.58;;;2.05;;
69991;SDS011;57332;51.320;-0.580;2023-07-13T04:30:50;7.03;;;2.10;;
69991;SDS011;57332;51.320;-0.580;2023-07-13T04:33:17;9.63;;;2.42;;
69991;SDS011;57332;51.320;-0.580;2023-07-13T04:35:44;3.83;;;2.05;;
69991;SDS011;57332;51.320;-0.580;2023-07-13T04:38:13;5.18;;;2.13;;
69991;SDS011;57332;51.320;-0.580;2023-07-13T04:40:44;4.32;;;2.13;;
69991;SDS011;57332;51.320;-0.580;2023-07-13T04:43:11;4.82;;;2.08;;
69991;SDS011;57332;51.320;-0.580;2023-07-13T04:45:38;6.63;;;2.10;;
69991;SDS011;57332;51.320;-0.580;2023-07-13T04:48:05;5.28;;;2.15;;
69991;SDS011;57332;51.320;-0.580;2023-07-13T04:50:32;6.28;;;1.90;;
69991;SDS011;57332;51.320;-0.580;2023-07-13T04:52:59;7.78;;;2.00;;
69991;SDS011;57332;51.320;-0.580;2023-07-13T04:55:26;8.70;;;1.98;;
69991;SDS011;57332;51.320;-0.580;2023-07-13T04:57:57;4.30;;;1.70;;
69991;SDS011;57332;51.320;-0.580;2023-07-13T05:00:27;6.28;;;1.90;;
69991;SDS011;57332;51.320;-0.580;2023-07-13T05:02:54;3.42;;;1.77;;
69991;SDS011;57332;51.320;-0.580;2023-07-13T05:05:22;5.22;;;1.65;;
69991;SDS011;57332;51.320;-0.580;2023-07-13T05:07:49;5.05;;;1.77;;
69991;SDS011;57332;51.320;-0.580;2023-07-13T05:10:16;5.03;;;2.00;;
69991;SDS011;57332;51.320;-0.580;2023-07-13T05:12:43;6.47;;;2.00;;
69991;SDS011;57332;51.320;-0.580;2023-07-13T05:15:10;3.97;;;2.13;;
69991;SDS011;57332;51.320;-0.580;2023-07-13T05:17:37;7.05;;;2.20;;
69991;SDS011;57332;51.320;-0.580;2023-07-13T05:20:06;6.85;;;2.00;;
69991;SDS011;57332;51.320;-0.580;2023-07-13T05:22:33;6.72;;;2.10;;
69991;SDS011;57332;51.320;-0.580;2023-07-13T05:25:04;6.15;;;2.90;;
69991;SDS011;57332;51.320;-0.580;2023-07-13T05:27:31;5.55;;;2.00;;
69991;SDS011;57332;51.320;-0.580;2023-07-13T05:29:58;3.95;;;1.95;;
69991;SDS011;57332;51.320;-0.580;2023-07-13T05:32:25;6.10;;;1.70;;
69991;SDS011;57332;51.320;-0.580;2023-07-13T05:34:52;4.80;;;2.20;;
69991;SDS011;57332;51.320;-0.580;2023-07-13T05:37:19;4.15;;;2.03;;
69991;SDS011;57332;51.320;-0.580;2023-07-13T05:39:46;6.82;;;2.35;;
69991;SDS011;57332;51.320;-0.580;2023-07-13T05:42:13;6.25;;;1.80;;
69991;SDS011;57332;51.320;-0.580;2023-07-13T05:44:40;4.50;;;2.58;;
69991;SDS011;57332;51.320;-0.580;2023-07-13T05:47:07;4.85;;;1.85;;
69991;SDS011;57332;51.320;-0.580;2023-07-13T05:49:34;4.82;;;1.90;;
69991;SDS011;57332;51.320;-0.580;2023-07-13T05:52:01;4.80;;;2.15;;
69991;SDS011;57332;51.320;-0.580;2023-07-13T05:54:28;4.28;;;1.85;;
69991;SDS011;57332;51.320;-0.580;2023-07-13T05:56:56;5.43;;;2.10;;
69991;SDS011;57332;51.320;-0.580;2023-07-13T05:59:23;4.18;;;1.92;;
69991;SDS011;57332;51.320;-0.580;2023-07-13T06:01:50;4.05;;;1.75;;
69991;SDS011;57332;51.320;-0.580;2023-07-13T06:04:19;6.20;;;2.05;;
69991;SDS011;57332;51.320;-0.580;2023-07-13T06:06:47;4.35;;;2.58;;
69991;SDS011;57332;51.320;-0.580;2023-07-13T06:09:14;5.60;;;2.00;;
69991;SDS011;57332;51.320;-0.580;2023-07-13T06:11:41;5.07;;;1.90;;
69991;SDS011;57332;51.320;-0.580;2023-07-13T06:14:07;6.63;;;2.20;;
69991;SDS011;57332;51.320;-0.580;2023-07-13T06:16:34;6.78;;;2.25;;
69991;SDS011;57332;51.320;-0.580;2023-07-13T06:19:02;6.00;;;2.00;;
69991;SDS011;57332;51.320;-0.580;2023-07-13T06:21:29;6.35;;;1.95;;
69991;SDS011;57332;51.320;-0.580;2023-07-13T06:23:56;6.75;;;2.30;;
69991;SDS011;57332;51.320;-0.580;2023-07-13T06:26:23;6.15;;;1.90;;
69991;SDS011;57332;51.320;-0.580;2023-07-13T06:28:50;5.63;;;1.77;;
69991;SDS011;57332;51.320;-0.580;2023-07-13T06:31:17;3.78;;;2.00;;
69991;SDS011;57332;51.320;-0.580;2023-07-13T06:33:44;3.60;;;1.80;;
69991;SDS011;57332;51.320;-0.580;2023-07-13T06:36:11;6.32;;;2.00;;
69991;SDS011;57332;51.320;-0.580;2023-07-13T06:38:38;4.50;;;1.90;;
69991;SDS011;57332;51.320;-0.580;2023-07-13T06:41:06;6.10;;;1.90;;
69991;SDS011;57332;51.320;-0.580;2023-07-13T06:43:33;5.93;;;3.17;;
69991;SDS011;57332;51.320;-0.580;2023-07-13T06:46:00;3.90;;;1.70;;
69991;SDS011;57332;51.320;-0.580;2023-07-13T06:48:27;4.53;;;1.95;;
69991;SDS011;57332;51.320;-0.580;2023-07-13T06:50:55;5.65;;;1.95;;
69991;SDS011;57332;51.320;-0.580;2023-07-13T06:53:22;4.95;;;2.10;;
69991;SDS011;57332;51.320;-0.580;2023-07-13T06:55:49;5.30;;;2.00;;
69991;SDS011;57332;51.320;-0.580;2023-07-13T06:58:17;5.15;;;1.90;;
69991;SDS011;57332;51.320;-0.580;2023-07-13T07:00:44;6.10;;;2.22;;
69991;SDS011;57332;51.320;-0.580;2023-07-13T07:03:11;2.80;;;1.77;;
69991;SDS011;57332;51.320;-0.580;2023-07-13T07:05:38;4.85;;;1.95;;
69991;SDS011;57332;51.320;-0.580;2023-07-13T07:08:05;3.50;;;1.67;;
69991;SDS011;57332;51.320;-0.580;2023-07-13T07:10:32;3.90;;;1.80;;
69991;SDS011;57332;51.320;-0.580;2023-07-13T07:13:00;5.88;;;1.92;;
69991;SDS011;57332;51.320;-0.580;2023-07-13T07:15:27;5.00;;;1.90;;
69991;SDS011;57332;51.320;-0.580;2023-07-13T07:17:54;5.18;;;1.70;;
69991;SDS011;57332;51.320;-0.580;2023-07-13T07:20:21;4.25;;;1.85;;
69991;SDS011;57332;51.320;-0.580;2023-07-13T07:22:48;3.80;;;1.60;;
69991;SDS011;57332;51.320;-0.580;2023-07-13T07:25:15;4.68;;;1.77;;
69991;SDS011;57332;51.320;-0.580;2023-07-13T07:27:42;5.40;;;1.88;;
69991;SDS011;57332;51.320;-0.580;2023-07-13T07:30:12;3.90;;;1.70;;
69991;SDS011;57332;51.320;-0.580;2023-07-13T07:32:42;3.67;;;1.80;;
69991;SDS011;57332;51.320;-0.580;2023-07-13T07:35:12;6.03;;;1.98;;
69991;SDS011;57332;51.320;-0.580;2023-07-13T07:37:39;3.22;;;1.40;;
69991;SDS011;57332;51.320;-0.580;2023-07-13T07:40:09;4.32;;;2.30;;
69991;SDS011;57332;51.320;-0.580;2023-07-13T07:42:39;3.67;;;1.75;;
69991;SDS011;57332;51.320;-0.580;2023-07-13T07:45:06;3.70;;;1.52;;
69991;SDS011;57332;51.320;-0.580;2023-07-13T07:47:33;2.33;;;1.73;;
69991;SDS011;57332;51.320;-0.580;2023-07-13T07:50:00;3.30;;;1.60;;
69991;SDS011;57332;51.320;-0.580;2023-07-13T07:52:27;2.67;;;1.67;;
69991;SDS011;57332;51.320;-0.580;2023-07-13T07:54:54;2.97;;;1.63;;
69991;SDS011;57332;51.320;-0.580;2023-07-13T07:57:24;4.75;;;2.00;;
69991;SDS011;57332;51.320;-0.580;2023-07-13T07:59:54;4.68;;;1.75;;
69991;SDS011;57332;51.320;-0.580;2023-07-13T08:02:24;5.40;;;1.60;;
69991;SDS011;57332;51.320;-0.580;2023-07-13T08:04:54;6.90;;;2.00;;
69991;SDS011;57332;51.320;-0.580;2023-07-13T08:07:23;5.47;;;1.80;;
69991;SDS011;57332;51.320;-0.580;2023-07-13T08:09:53;2.13;;;1.45;;
69991;SDS011;57332;51.320;-0.580;2023-07-13T08:12:20;5.25;;;1.67;;
69991;SDS011;57332;51.320;-0.580;2023-07-13T08:14:50;4.35;;;1.65;;
69991;SDS011;57332;51.320;-0.580;2023-07-13T08:17:24;3.20;;;1.70;;
69991;SDS011;57332;51.320;-0.580;2023-07-13T08:19:51;3.72;;;1.70;;
69991;SDS011;57332;51.320;-0.580;2023-07-13T08:22:18;4.65;;;1.35;;
69991;SDS011;57332;51.320;-0.580;2023-07-13T08:24:45;4.95;;;1.80;;
69991;SDS011;57332;51.320;-0.580;2023-07-13T08:27:13;5.50;;;1.70;;
69991;SDS011;57332;51.320;-0.580;2023-07-13T08:29:41;4.20;;;1.65;;
69991;SDS011;57332;51.320;-0.580;2023-07-13T08:32:08;4.60;;;1.50;;
69991;SDS011;57332;51.320;-0.580;2023-07-13T08:34:36;2.67;;;1.40;;
69991;SDS011;57332;51.320;-0.580;2023-07-13T08:37:03;5.40;;;1.60;;
69991;SDS011;57332;51.320;-0.580;2023-07-13T08:39:30;3.05;;;1.60;;
69991;SDS011;57332;51.320;-0.580;2023-07-13T08:42:01;8.98;;;2.20;;
69991;SDS011;57332;51.320;-0.580;2023-07-13T08:47:15;1.98;;;1.48;;
69991;SDS011;57332;51.320;-0.580;2023-07-13T08:49:43;4.97;;;2.22;;
69991;SDS011;57332;51.320;-0.580;2023-07-13T08:52:12;5.97;;;1.83;;
69991;SDS011;57332;51.320;-0.580;2023-07-13T08:54:44;4.75;;;1.50;;
69991;SDS011;57332;51.320;-0.580;2023-07-13T08:57:16;3.78;;;1.50;;
69991;SDS011;57332;51.320;-0.580;2023-07-13T08:59:44;2.25;;;1.27;;
69991;SDS011;57332;51.320;-0.580;2023-07-13T09:02:16;2.08;;;1.38;;
69991;SDS011;57332;51.320;-0.580;2023-07-13T09:08:04;2.45;;;1.30;;
69991;SDS011;57332;51.320;-0.580;2023-07-13T09:12:32;2.88;;;1.20;;
69991;SDS011;57332;51.320;-0.580;2023-07-13T09:15:02;4.35;;;1.50;;
69991;SDS011;57332;51.320;-0.580;2023-07-13T09:17:35;1.88;;;1.38;;
69991;SDS011;57332;51.320;-0.580;2023-07-13T09:20:04;2.70;;;1.35;;
69991;SDS011;57332;51.320;-0.580;2023-07-13T09:22:34;5.13;;;1.85;;
69991;SDS011;57332;51.320;-0.580;2023-07-13T09:25:21;1.98;;;1.05;;
69991;SDS011;57332;51.320;-0.580;2023-07-13T09:27:50;1.80;;;0.95;;
69991;SDS011;57332;51.320;-0.580;2023-07-13T09:35:36;3.10;;;1.25;;
69991;SDS011;57332;51.320;-0.580;2023-07-13T09:38:09;2.08;;;1.20;;
69991;SDS011;57332;51.320;-0.580;2023-07-13T09:43:04;2.47;;;1.20;;
69991;SDS011;57332;51.320;-0.580;2023-07-13T09:45:32;3.03;;;1.08;;
69991;SDS011;57332;51.320;-0.580;2023-07-13T09:48:03;2.83;;;1.48;;
69991;SDS011;57332;51.320;-0.580;2023-07-13T09:50:31;3.33;;;1.20;;
69991;SDS011;57332;51.320;-0.580;2023-07-13T09:52:58;1.60;;;1.20;;
69991;SDS011;57332;51.320;-0.580;2023-07-13T09:57:59;1.73;;;1.30;;
69991;SDS011;57332;51.320;-0.580;2023-07-13T10:00:29;3.20;;;1.10;;
69991;SDS011;57332;51.320;-0.580;2023-07-13T10:03:09;5.65;;;1.50;;
69991;SDS011;57332;51.320;-0.580;2023-07-13T10:05:41;3.10;;;1.35;;
69991;SDS011;57332;51.320;-0.580;2023-07-13T10:08:16;2.63;;;1.27;;
69991;SDS011;57332;51.320;-0.580;2023-07-13T10:10:45;1.50;;;1.10;;
69991;SDS011;57332;51.320;-0.580;2023-07-13T10:15:55;1.50;;;1.10;;
69991;SDS011;57332;51.320;-0.580;2023-07-13T10:18:23;2.83;;;1.40;;
69991;SDS011;57332;51.320;-0.580;2023-07-13T10:20:54;2.75;;;1.20;;
69991;SDS011;57332;51.320;-0.580;2023-07-13T10:23:53;2.83;;;0.98;;
69991;SDS011;57332;51.320;-0.580;2023-07-13T10:26:23;3.03;;;1.05;;
69991;SDS011;57332;51.320;-0.580;2023-07-13T10:28:51;1.27;;;1.00;;
69991;SDS011;57332;51.320;-0.580;2023-07-13T10:31:19;2.85;;;1.00;;
69991;SDS011;57332;51.320;-0.580;2023-07-13T10:33:47;3.50;;;1.10;;
69991;SDS011;57332;51.320;-0.580;2023-07-13T10:38:45;2.40;;;0.98;;
69991;SDS011;57332;51.320;-0.580;2023-07-13T10:41:22;3.17;;;1.10;;
69991;SDS011;57332;51.320;-0.580;2023-07-13T10:43:51;3.65;;;1.30;;
69991;SDS011;57332;51.320;-0.580;2023-07-13T10:46:20;2.38;;;1.15;;
69991;SDS011;57332;51.320;-0.580;2023-07-13T10:48:49;2.33;;;1.38;;
69991;SDS011;57332;51.320;-0.580;2023-07-13T10:51:17;2.05;;;1.10;;
69991;SDS011;57332;51.320;-0.580;2023-07-13T10:53:48;2.70;;;1.08;;
69991;SDS011;57332;51.320;-0.580;2023-07-13T10:56:34;2.58;;;1.27;;
69991;SDS011;57332;51.320;-0.580;2023-07-13T11:01:52;3.00;;;1.48;;
69991;SDS011;57332;51.320;-0.580;2023-07-13T11:04:20;2.75;;;1.38;;
69991;SDS011;57332;51.320;-0.580;2023-07-13T11:06:48;2.42;;;1.27;;
69991;SDS011;57332;51.320;-0.580;2023-07-13T11:09:31;1.65;;;1.13;;
69991;SDS011;57332;51.320;-0.580;2023-07-13T11:12:03;3.45;;;1.30;;
69991;SDS011;57332;51.320;-0.580;2023-07-13T11:14:34;2.38;;;1.38;;
69991;SDS011;57332;51.320;-0.580;2023-07-13T11:17:24;2.92;;;1.33;;
69991;SDS011;57332;51.320;-0.580;2023-07-13T11:19:51;2.97;;;1.27;;
69991;SDS011;57332;51.320;-0.580;2023-07-13T11:22:24;3.30;;;1.20;;
69991;SDS011;57332;51.320;-0.580;2023-07-13T11:30:08;3.30;;;1.15;;
69991;SDS011;57332;51.320;-0.580;2023-07-13T11:32:36;1.83;;;0.85;;
69991;SDS011;57332;51.320;-0.580;2023-07-13T11:35:03;2.03;;;1.10;;
69991;SDS011;57332;51.320;-0.580;2023-07-13T11:37:30;2.20;;;0.95;;
69991;SDS011;57332;51.320;-0.580;2023-07-13T11:39:59;2.40;;;1.20;;
69991;SDS011;57332;51.320;-0.580;2023-07-13T11:42:26;3.05;;;1.00;;
69991;SDS011;57332;51.320;-0.580;2023-07-13T11:44:53;2.67;;;1.30;;
69991;SDS011;57332;51.320;-0.580;2023-07-13T11:47:39;3.10;;;1.40;;
69991;SDS011;57332;51.320;-0.580;2023-07-13T11:50:16;4.35;;;1.30;;
69991;SDS011;57332;51.320;-0.580;2023-07-13T11:52:44;2.78;;;1.25;;
69991;SDS011;57332;51.320;-0.580;2023-07-13T11:55:14;1.92;;;1.17;;
69991;SDS011;57332;51.320;-0.580;2023-07-13T11:57:44;2.65;;;1.20;;
69991;SDS011;57332;51.320;-0.580;2023-07-13T12:00:14;3.10;;;1.35;;
69991;SDS011;57332;51.320;-0.580;2023-07-13T12:02:46;2.05;;;1.48;;
69991;SDS011;57332;51.320;-0.580;2023-07-13T12:05:15;2.83;;;1.13;;
69991;SDS011;57332;51.320;-0.580;2023-07-13T12:07:44;1.77;;;1.30;;
69991;SDS011;57332;51.320;-0.580;2023-07-13T12:13:03;4.53;;;1.73;;
69991;SDS011;57332;51.320;-0.580;2023-07-13T12:15:36;3.05;;;1.05;;
69991;SDS011;57332;51.320;-0.580;2023-07-13T12:18:18;3.30;;;1.20;;
69991;SDS011;57332;51.320;-0.580;2023-07-13T12:20:47;3.67;;;1.35;;
69991;SDS011;57332;51.320;-0.580;2023-07-13T12:23:22;2.25;;;1.42;;
69991;SDS011;57332;51.320;-0.580;2023-07-13T12:25:51;4.55;;;1.75;;
69991;SDS011;57332;51.320;-0.580;2023-07-13T12:28:34;3.70;;;1.70;;
69991;SDS011;57332;51.320;-0.580;2023-07-13T12:33:29;2.92;;;1.33;;
69991;SDS011;57332;51.320;-0.580;2023-07-13T12:35:56;2.03;;;1.42;;
69991;SDS011;57332;51.320;-0.580;2023-07-13T12:38:27;1.83;;;1.10;;
69991;SDS011;57332;51.320;-0.580;2023-07-13T12:40:54;2.20;;;1.40;;
69991;SDS011;57332;51.320;-0.580;2023-07-13T12:43:21;2.40;;;1.15;;
69991;SDS011;57332;51.320;-0.580;2023-07-13T12:48:25;3.35;;;1.40;;
69991;SDS011;57332;51.320;-0.580;2023-07-13T12:51:13;2.90;;;1.35;;
69991;SDS011;57332;51.320;-0.580;2023-07-13T12:53:41;2.25;;;1.20;;
69991;SDS011;57332;51.320;-0.580;2023-07-13T12:56:11;3.00;;;1.15;;
69991;SDS011;57332;51.320;-0.580;2023-07-13T12:58:42;1.70;;;1.20;;
69991;SDS011;57332;51.320;-0.580;2023-07-13T13:01:11;3.05;;;1.17;;
69991;SDS011;57332;51.320;-0.580;2023-07-13T13:03:46;2.33;;;1.25;;
69991;SDS011;57332;51.320;-0.580;2023-07-13T13:08:41;3.10;;;1.50;;
69991;SDS011;57332;51.320;-0.580;2023-07-13T13:11:10;3.08;;;1.30;;
69991;SDS011;57332;51.320;-0.580;2023-07-13T13:13:37;3.92;;;1.75;;
69991;SDS011;57332;51.320;-0.580;2023-07-13T13:16:22;2.95;;;1.58;;
69991;SDS011;57332;51.320;-0.580;2023-07-13T13:18:50;3.00;;;1.70;;
69991;SDS011;57332;51.320;-0.580;2023-07-13T13:21:18;3.45;;;1.70;;
69991;SDS011;57332;51.320;-0.580;2023-07-13T13:23:46;3.83;;;1.70;;
69991;SDS011;57332;51.320;-0.580;2023-07-13T13:26:14;4.32;;;1.60;;
69991;SDS011;57332;51.320;-0.580;2023-07-13T13:28:42;3.90;;;1.77;;
69991;SDS011;57332;51.320;-0.580;2023-07-13T13:31:11;4.50;;;1.77;;
69991;SDS011;57332;51.320;-0.580;2023-07-13T13:33:40;4.28;;;1.90;;
69991;SDS011;57332;51.320;-0.580;2023-07-13T13:36:16;3.58;;;2.10;;
69991;SDS011;57332;51.320;-0.580;2023-07-13T13:38:43;4.05;;;1.60;;
69991;SDS011;57332;51.320;-0.580;2023-07-13T13:41:11;5.45;;;1.70;;
69991;SDS011;57332;51.320;-0.580;2023-07-13T13:43:42;3.47;;;1.40;;
69991;SDS011;57332;51.320;-0.580;2023-07-13T13:48:38;2.92;;;1.70;;
69991;SDS011;57332;51.320;-0.580;2023-07-13T13:51:16;4.85;;;1.67;;
69991;SDS011;57332;51.320;-0.580;2023-07-13T13:53:44;4.22;;;1.55;;
69991;SDS011;57332;51.320;-0.580;2023-07-13T13:56:12;4.78;;;1.98;;
69991;SDS011;57332;51.320;-0.580;2023-07-13T13:58:40;3.83;;;1.63;;
69991;SDS011;57332;51.320;-0.580;2023-07-13T14:01:11;4.00;;;1.70;;
69991;SDS011;57332;51.320;-0.580;2023-07-13T14:03:39;3.85;;;1.80;;
69991;SDS011;57332;51.320;-0.580;2023-07-13T14:06:07;4.20;;;1.38;;
69991;SDS011;57332;51.320;-0.580;2023-07-13T14:08:34;3.22;;;1.60;;
69991;SDS011;57332;51.320;-0.580;2023-07-13T14:11:01;5.78;;;1.88;;
69991;SDS011;57332;51.320;-0.580;2023-07-13T14:13:28;5.28;;;1.88;;
69991;SDS011;57332;51.320;-0.580;2023-07-13T14:15:56;4.85;;;1.75;;
69991;SDS011;57332;51.320;-0.580;2023-07-13T14:18:23;3.10;;;1.63;;
69991;SDS011;57332;51.320;-0.580;2023-07-13T14:20:50;3.83;;;1.60;;
69991;SDS011;57332;51.320;-0.580;2023-07-13T14:23:19;4.68;;;1.80;;
69991;SDS011;57332;51.320;-0.580;2023-07-13T14:25:47;4.88;;;1.70;;
69991;SDS011;57332;51.320;-0.580;2023-07-13T14:28:24;4.47;;;1.60;;
69991;SDS011;57332;51.320;-0.580;2023-07-13T14:30:51;4.15;;;1.60;;
69991;SDS011;57332;51.320;-0.580;2023-07-13T14:33:19;4.72;;;1.77;;
69991;SDS011;57332;51.320;-0.580;2023-07-13T14:35:46;3.72;;;1.75;;
69991;SDS011;57332;51.320;-0.580;2023-07-13T14:38:18;3.65;;;1.70;;
69991;SDS011;57332;51.320;-0.580;2023-07-13T14:40:45;3.28;;;1.60;;
69991;SDS011;57332;51.320;-0.580;2023-07-13T14:43:13;4.68;;;1.85;;
69991;SDS011;57332;51.320;-0.580;2023-07-13T14:45:41;4.30;;;1.80;;
69991;SDS011;57332;51.320;-0.580;2023-07-13T14:48:15;5.10;;;1.90;;
69991;SDS011;57332;51.320;-0.580;2023-07-13T14:50:43;4.40;;;2.13;;
69991;SDS011;57332;51.320;-0.580;2023-07-13T14:53:10;5.13;;;2.33;;
69991;SDS011;57332;51.320;-0.580;2023-07-13T14:55:38;5.63;;;2.17;;
69991;SDS011;57332;51.320;-0.580;2023-07-13T14:58:06;5.43;;;2.20;;
69991;SDS011;57332;51.320;-0.580;2023-07-13T15:00:33;4.13;;;1.80;;
69991;SDS011;57332;51.320;-0.580;2023-07-13T15:03:00;4.70;;;1.98;;
69991;SDS011;57332;51.320;-0.580;2023-07-13T15:05:29;4.30;;;2.10;;
69991;SDS011;57332;51.320;-0.580;2023-07-13T15:08:00;6.75;;;2.25;;
69991;SDS011;57332;51.320;-0.580;2023-07-13T15:13:01;4.70;;;2.13;;
69991;SDS011;57332;51.320;-0.580;2023-07-13T15:15:29;4.35;;;2.50;;
69991;SDS011;57332;51.320;-0.580;2023-07-13T15:17:57;6.20;;;2.05;;
69991;SDS011;57332;51.320;-0.580;2023-07-13T15:20:30;6.53;;;2.63;;
69991;SDS011;57332;51.320;-0.580;2023-07-13T15:22:59;5.88;;;2.17;;
69991;SDS011;57332;51.320;-0.580;2023-07-13T15:25:28;5.88;;;2.20;;
69991;SDS011;57332;51.320;-0.580;2023-07-13T15:27:56;4.65;;;1.95;;
69991;SDS011;57332;51.320;-0.580;2023-07-13T15:30:30;4.65;;;1.95;;
69991;SDS011;57332;51.320;-0.580;2023-07-13T15:32:58;5.97;;;2.17;;